VOCB

Coimbatore International Airport

Coimbatore, India
TAF VOCB 221700Z 2218/2324 21010KT 6000 FEW015 SCT080 BECMG 2221/2222 5000 BR BECMG 2303/2304 21010G20KT 6000 BECMG 2312/2313 21010KT
Issued Valid From Valid To
Jul-22 @ 17:00 UTC
(3 hours ago)
Jul-22 @ 18:00 UTC
(2 hours ago)
Jul-24 @ 00:00 UTC
(-1 days ago)
Jul-22 @ 18:00 to Jul-22 @ 21:00
TAF VOCB 221700Z 2218/2324 21010KT 6000 FEW015 SCT080
Wind Visibility Clouds
210° at 10 knots 6,003 meters
  • Few at 1,500' AGL
  • Scattered at 8,000' AGL
Becoming Jul-22 @ 21:00 to Jul-23 @ 03:00
BECMG 2221/2222 5000 BR
Wind Visibility Clouds Conditions
210° at 10 knots 5,005 meters
  • Few at 1,500' AGL
  • Scattered at 8,000' AGL
  • Mist
Becoming Jul-23 @ 03:00 to Jul-23 @ 12:00
BECMG 2303/2304 21010G20KT 6000
Wind Visibility Clouds Conditions
210° at 10 knots
 Gusting to 20 knots
6,003 meters
  • Few at 1,500' AGL
  • Scattered at 8,000' AGL
  • Mist
Becoming Jul-23 @ 12:00 to Jul-24 @ 00:00
BECMG 2312/2313 21010KT
Wind Visibility Clouds Conditions
210° at 10 knots 6,003 meters
  • Few at 1,500' AGL
  • Scattered at 8,000' AGL
  • Mist
TAF VOCB 221700Z 2218/2324 21010KT 6000 FEW015 SCT080 BECMG 2221/2222 5000 BR BECMG 2303/2304 21010G20KT 6000 BECMG 2312/2313 21010KT
Issued Jul-22 @ 17:00 UTC
(3 hours ago)
Valid From Jul-22 @ 18:00 UTC
(2 hours ago)
Valid To Jul-24 @ 00:00 UTC
(-1 days ago)
Jul-22 @ 18:00 - Jul-22 @ 21:00
Wind Visibility
210° at 10 knots 6,003 meters
Clouds
  • Few at 1,500' AGL
  • Scattered at 8,000' AGL
Becoming Jul-22 @ 21:00 - Jul-23 @ 03:00
Wind Visibility
210° at 10 knots 5,005 meters
Clouds
  • Few at 1,500' AGL
  • Scattered at 8,000' AGL
Conditions
  • Mist
Becoming Jul-23 @ 03:00 - Jul-23 @ 12:00
Wind Visibility
210° at 10 knots
 Gusting to 20 knots
6,003 meters
Clouds
  • Few at 1,500' AGL
  • Scattered at 8,000' AGL
Conditions
  • Mist
Becoming Jul-23 @ 12:00 - Jul-24 @ 00:00
Wind Visibility
210° at 10 knots 6,003 meters
Clouds
  • Few at 1,500' AGL
  • Scattered at 8,000' AGL
Conditions
  • Mist